sensor_id;sensor_type;location;lat;lon;timestamp;P1;durP1;ratioP1;P2;durP2;ratioP2
27424;SDS011;15244;49.088;11.886;2022-11-15T00:04:34;9.68;;;8.45;;
27424;SDS011;15244;49.088;11.886;2022-11-15T00:09:57;11.52;;;9.13;;
27424;SDS011;15244;49.088;11.886;2022-11-15T00:15:17;11.15;;;8.88;;
27424;SDS011;15244;49.088;11.886;2022-11-15T00:20:41;10.43;;;9.30;;
27424;SDS011;15244;49.088;11.886;2022-11-15T00:26:12;15.00;;;10.02;;
27424;SDS011;15244;49.088;11.886;2022-11-15T00:31:36;12.63;;;9.38;;
27424;SDS011;15244;49.088;11.886;2022-11-15T00:36:58;10.52;;;9.25;;
27424;SDS011;15244;49.088;11.886;2022-11-15T00:42:23;11.48;;;9.48;;
27424;SDS011;15244;49.088;11.886;2022-11-15T00:47:50;12.63;;;9.93;;
27424;SDS011;15244;49.088;11.886;2022-11-15T00:53:13;13.27;;;10.27;;
27424;SDS011;15244;49.088;11.886;2022-11-15T00:58:37;10.48;;;8.43;;
27424;SDS011;15244;49.088;11.886;2022-11-15T01:03:57;10.02;;;8.90;;
27424;SDS011;15244;49.088;11.886;2022-11-15T01:09:20;10.40;;;9.27;;
27424;SDS011;15244;49.088;11.886;2022-11-15T01:14:45;10.82;;;9.73;;
27424;SDS011;15244;49.088;11.886;2022-11-15T01:20:09;11.75;;;9.50;;
27424;SDS011;15244;49.088;11.886;2022-11-15T01:25:42;12.85;;;10.20;;
27424;SDS011;15244;49.088;11.886;2022-11-15T01:31:05;12.98;;;9.57;;
27424;SDS011;15244;49.088;11.886;2022-11-15T01:36:28;13.10;;;10.23;;
27424;SDS011;15244;49.088;11.886;2022-11-15T01:41:48;10.32;;;9.23;;
27424;SDS011;15244;49.088;11.886;2022-11-15T01:47:31;11.93;;;10.25;;
27424;SDS011;15244;49.088;11.886;2022-11-15T01:52:59;14.45;;;10.05;;
27424;SDS011;15244;49.088;11.886;2022-11-15T01:58:19;12.32;;;10.80;;
27424;SDS011;15244;49.088;11.886;2022-11-15T02:03:51;13.63;;;10.18;;
27424;SDS011;15244;49.088;11.886;2022-11-15T02:09:16;13.55;;;10.43;;
27424;SDS011;15244;49.088;11.886;2022-11-15T02:14:44;13.48;;;11.10;;
27424;SDS011;15244;49.088;11.886;2022-11-15T02:20:27;11.82;;;10.13;;
27424;SDS011;15244;49.088;11.886;2022-11-15T02:31:51;14.75;;;11.77;;
27424;SDS011;15244;49.088;11.886;2022-11-15T02:37:28;14.23;;;11.85;;
27424;SDS011;15244;49.088;11.886;2022-11-15T02:43:09;14.50;;;11.55;;
27424;SDS011;15244;49.088;11.886;2022-11-15T02:48:50;15.65;;;12.10;;
27424;SDS011;15244;49.088;11.886;2022-11-15T02:54:15;14.35;;;11.77;;
27424;SDS011;15244;49.088;11.886;2022-11-15T02:59:48;14.93;;;11.23;;
27424;SDS011;15244;49.088;11.886;2022-11-15T03:05:37;14.20;;;11.95;;
27424;SDS011;15244;49.088;11.886;2022-11-15T03:16:39;13.85;;;11.15;;
27424;SDS011;15244;49.088;11.886;2022-11-15T03:22:14;15.40;;;11.95;;
27424;SDS011;15244;49.088;11.886;2022-11-15T03:27:39;13.52;;;11.35;;
27424;SDS011;15244;49.088;11.886;2022-11-15T03:33:07;15.07;;;11.70;;
27424;SDS011;15244;49.088;11.886;2022-11-15T03:38:29;13.73;;;11.43;;
27424;SDS011;15244;49.088;11.886;2022-11-15T03:44:40;14.73;;;11.57;;
27424;SDS011;15244;49.088;11.886;2022-11-15T03:49:44;15.32;;;11.50;;
27424;SDS011;15244;49.088;11.886;2022-11-15T03:55:12;13.20;;;11.25;;
27424;SDS011;15244;49.088;11.886;2022-11-15T04:00:37;13.15;;;10.35;;
27424;SDS011;15244;49.088;11.886;2022-11-15T04:06:09;14.07;;;11.00;;
27424;SDS011;15244;49.088;11.886;2022-11-15T04:11:32;13.38;;;11.00;;
27424;SDS011;15244;49.088;11.886;2022-11-15T04:16:53;13.95;;;11.48;;
27424;SDS011;15244;49.088;11.886;2022-11-15T04:22:21;13.75;;;11.30;;
27424;SDS011;15244;49.088;11.886;2022-11-15T04:28:02;12.73;;;10.50;;
27424;SDS011;15244;49.088;11.886;2022-11-15T04:33:23;12.80;;;10.45;;
27424;SDS011;15244;49.088;11.886;2022-11-15T04:38:48;14.07;;;10.93;;
27424;SDS011;15244;49.088;11.886;2022-11-15T04:44:09;12.60;;;10.23;;
27424;SDS011;15244;49.088;11.886;2022-11-15T04:49:33;12.70;;;10.52;;
27424;SDS011;15244;49.088;11.886;2022-11-15T04:54:56;14.02;;;11.40;;
27424;SDS011;15244;49.088;11.886;2022-11-15T05:00:19;14.20;;;10.88;;
27424;SDS011;15244;49.088;11.886;2022-11-15T05:05:39;14.13;;;11.38;;
27424;SDS011;15244;49.088;11.886;2022-11-15T05:11:01;11.90;;;9.95;;
27424;SDS011;15244;49.088;11.886;2022-11-15T05:16:24;15.25;;;11.23;;
27424;SDS011;15244;49.088;11.886;2022-11-15T05:21:44;25.60;;;14.35;;
27424;SDS011;15244;49.088;11.886;2022-11-15T05:27:04;14.18;;;11.55;;
27424;SDS011;15244;49.088;11.886;2022-11-15T05:32:29;14.60;;;11.63;;
27424;SDS011;15244;49.088;11.886;2022-11-15T05:37:51;17.17;;;11.00;;
27424;SDS011;15244;49.088;11.886;2022-11-15T05:43:26;9.40;;;7.68;;
27424;SDS011;15244;49.088;11.886;2022-11-15T05:48:51;13.88;;;10.73;;
27424;SDS011;15244;49.088;11.886;2022-11-15T05:54:16;12.13;;;10.00;;
27424;SDS011;15244;49.088;11.886;2022-11-15T05:59:41;13.80;;;10.75;;
27424;SDS011;15244;49.088;11.886;2022-11-15T06:05:05;12.85;;;10.18;;
27424;SDS011;15244;49.088;11.886;2022-11-15T06:10:28;12.48;;;10.13;;
27424;SDS011;15244;49.088;11.886;2022-11-15T06:15:48;14.48;;;11.07;;
27424;SDS011;15244;49.088;11.886;2022-11-15T06:21:13;12.15;;;10.35;;
27424;SDS011;15244;49.088;11.886;2022-11-15T06:26:33;14.50;;;10.73;;
27424;SDS011;15244;49.088;11.886;2022-11-15T06:31:59;13.32;;;11.43;;
27424;SDS011;15244;49.088;11.886;2022-11-15T06:37:24;14.32;;;11.55;;
27424;SDS011;15244;49.088;11.886;2022-11-15T06:42:49;15.00;;;11.52;;
27424;SDS011;15244;49.088;11.886;2022-11-15T06:48:16;12.13;;;10.85;;
27424;SDS011;15244;49.088;11.886;2022-11-15T06:53:38;13.50;;;11.50;;
27424;SDS011;15244;49.088;11.886;2022-11-15T06:59:14;12.43;;;10.75;;
27424;SDS011;15244;49.088;11.886;2022-11-15T07:04:34;11.68;;;10.20;;
27424;SDS011;15244;49.088;11.886;2022-11-15T07:09:58;15.55;;;10.52;;
27424;SDS011;15244;49.088;11.886;2022-11-15T07:15:25;13.52;;;11.25;;
27424;SDS011;15244;49.088;11.886;2022-11-15T07:20:51;11.55;;;10.15;;
27424;SDS011;15244;49.088;11.886;2022-11-15T07:26:17;13.50;;;10.90;;
27424;SDS011;15244;49.088;11.886;2022-11-15T07:31:37;20.42;;;13.75;;
27424;SDS011;15244;49.088;11.886;2022-11-15T07:37:02;17.83;;;13.32;;
27424;SDS011;15244;49.088;11.886;2022-11-15T07:42:33;14.93;;;12.27;;
27424;SDS011;15244;49.088;11.886;2022-11-15T07:48:35;17.90;;;12.43;;
27424;SDS011;15244;49.088;11.886;2022-11-15T07:54:05;14.13;;;10.95;;
27424;SDS011;15244;49.088;11.886;2022-11-15T07:59:43;10.90;;;9.77;;
27424;SDS011;15244;49.088;11.886;2022-11-15T08:05:08;11.98;;;10.77;;
27424;SDS011;15244;49.088;11.886;2022-11-15T08:10:33;14.10;;;9.60;;
27424;SDS011;15244;49.088;11.886;2022-11-15T08:15:59;11.02;;;9.25;;
27424;SDS011;15244;49.088;11.886;2022-11-15T08:21:22;13.57;;;10.43;;
27424;SDS011;15244;49.088;11.886;2022-11-15T08:26:53;11.82;;;8.98;;
27424;SDS011;15244;49.088;11.886;2022-11-15T08:32:15;10.27;;;9.18;;
27424;SDS011;15244;49.088;11.886;2022-11-15T08:37:39;11.10;;;9.80;;
27424;SDS011;15244;49.088;11.886;2022-11-15T08:43:02;10.32;;;9.23;;
27424;SDS011;15244;49.088;11.886;2022-11-15T08:48:27;11.40;;;9.52;;
27424;SDS011;15244;49.088;11.886;2022-11-15T08:53:50;12.05;;;9.45;;
27424;SDS011;15244;49.088;11.886;2022-11-15T08:59:12;11.48;;;9.93;;
27424;SDS011;15244;49.088;11.886;2022-11-15T09:04:34;13.98;;;10.23;;
27424;SDS011;15244;49.088;11.886;2022-11-15T09:09:59;14.88;;;12.05;;
27424;SDS011;15244;49.088;11.886;2022-11-15T09:15:24;14.63;;;10.40;;
27424;SDS011;15244;49.088;11.886;2022-11-15T09:20:49;13.45;;;11.43;;
27424;SDS011;15244;49.088;11.886;2022-11-15T09:26:09;14.75;;;11.70;;
27424;SDS011;15244;49.088;11.886;2022-11-15T09:31:34;14.15;;;12.02;;
27424;SDS011;15244;49.088;11.886;2022-11-15T09:36:57;14.68;;;11.20;;
27424;SDS011;15244;49.088;11.886;2022-11-15T09:54:11;13.57;;;11.05;;
27424;SDS011;15244;49.088;11.886;2022-11-15T10:05:24;13.60;;;11.45;;
27424;SDS011;15244;49.088;11.886;2022-11-15T10:10:39;14.73;;;12.32;;
27424;SDS011;15244;49.088;11.886;2022-11-15T10:15:49;14.27;;;11.27;;
27424;SDS011;15244;49.088;11.886;2022-11-15T10:21:02;13.27;;;11.65;;
27424;SDS011;15244;49.088;11.886;2022-11-15T10:26:28;13.95;;;11.02;;
27424;SDS011;15244;49.088;11.886;2022-11-15T10:31:37;13.65;;;10.82;;
27424;SDS011;15244;49.088;11.886;2022-11-15T10:36:59;12.07;;;10.18;;
27424;SDS011;15244;49.088;11.886;2022-11-15T10:42:27;16.63;;;10.60;;
27424;SDS011;15244;49.088;11.886;2022-11-15T10:47:43;10.80;;;9.70;;
27424;SDS011;15244;49.088;11.886;2022-11-15T10:52:48;11.75;;;9.73;;
27424;SDS011;15244;49.088;11.886;2022-11-15T10:57:54;9.80;;;8.80;;
27424;SDS011;15244;49.088;11.886;2022-11-15T11:03:29;10.50;;;9.50;;
27424;SDS011;15244;49.088;11.886;2022-11-15T11:08:52;12.63;;;9.13;;
27424;SDS011;15244;49.088;11.886;2022-11-15T11:14:11;10.50;;;9.20;;
27424;SDS011;15244;49.088;11.886;2022-11-15T11:19:43;13.43;;;9.88;;
27424;SDS011;15244;49.088;11.886;2022-11-15T11:24:58;9.95;;;8.95;;
27424;SDS011;15244;49.088;11.886;2022-11-15T11:57:46;10.48;;;9.38;;
27424;SDS011;15244;49.088;11.886;2022-11-15T12:08:13;9.57;;;8.60;;
27424;SDS011;15244;49.088;11.886;2022-11-15T12:13:31;11.25;;;9.40;;
27424;SDS011;15244;49.088;11.886;2022-11-15T12:18:39;11.20;;;9.32;;
27424;SDS011;15244;49.088;11.886;2022-11-15T12:23:48;9.57;;;8.50;;
27424;SDS011;15244;49.088;11.886;2022-11-15T12:28:57;10.98;;;8.95;;
27424;SDS011;15244;49.088;11.886;2022-11-15T12:34:38;10.10;;;8.05;;
27424;SDS011;15244;49.088;11.886;2022-11-15T12:45:24;10.15;;;7.63;;
27424;SDS011;15244;49.088;11.886;2022-11-15T13:06:42;7.65;;;6.72;;
27424;SDS011;15244;49.088;11.886;2022-11-15T13:11:45;7.03;;;6.10;;
27424;SDS011;15244;49.088;11.886;2022-11-15T13:16:55;6.78;;;6.18;;
27424;SDS011;15244;49.088;11.886;2022-11-15T13:22:10;7.32;;;6.68;;
27424;SDS011;15244;49.088;11.886;2022-11-15T13:27:36;8.60;;;6.85;;
27424;SDS011;15244;49.088;11.886;2022-11-15T13:33:08;7.78;;;6.60;;
27424;SDS011;15244;49.088;11.886;2022-11-15T13:43:29;6.38;;;5.88;;
27424;SDS011;15244;49.088;11.886;2022-11-15T13:48:38;6.82;;;5.63;;
27424;SDS011;15244;49.088;11.886;2022-11-15T13:53:43;6.07;;;5.55;;
27424;SDS011;15244;49.088;11.886;2022-11-15T13:59:10;5.45;;;4.95;;
27424;SDS011;15244;49.088;11.886;2022-11-15T14:04:21;5.22;;;4.82;;
27424;SDS011;15244;49.088;11.886;2022-11-15T14:09:35;5.10;;;4.70;;
27424;SDS011;15244;49.088;11.886;2022-11-15T14:14:47;5.53;;;5.00;;
27424;SDS011;15244;49.088;11.886;2022-11-15T14:19:49;5.28;;;4.88;;
27424;SDS011;15244;49.088;11.886;2022-11-15T14:30:34;4.97;;;4.47;;
27424;SDS011;15244;49.088;11.886;2022-11-15T14:35:43;4.50;;;4.10;;
27424;SDS011;15244;49.088;11.886;2022-11-15T14:41:09;5.78;;;4.28;;
27424;SDS011;15244;49.088;11.886;2022-11-15T14:46:22;6.55;;;5.60;;
27424;SDS011;15244;49.088;11.886;2022-11-15T14:51:26;6.60;;;6.10;;
27424;SDS011;15244;49.088;11.886;2022-11-15T14:56:37;6.65;;;6.05;;
27424;SDS011;15244;49.088;11.886;2022-11-15T15:01:46;7.38;;;6.22;;
27424;SDS011;15244;49.088;11.886;2022-11-15T15:06:55;7.63;;;6.85;;
27424;SDS011;15244;49.088;11.886;2022-11-15T15:12:17;7.05;;;6.43;;
27424;SDS011;15244;49.088;11.886;2022-11-15T15:17:31;7.70;;;6.75;;
27424;SDS011;15244;49.088;11.886;2022-11-15T15:22:37;9.50;;;8.60;;
27424;SDS011;15244;49.088;11.886;2022-11-15T15:27:41;8.73;;;6.90;;
27424;SDS011;15244;49.088;11.886;2022-11-15T15:32:45;7.63;;;6.93;;
27424;SDS011;15244;49.088;11.886;2022-11-15T15:37:53;10.23;;;6.88;;
27424;SDS011;15244;49.088;11.886;2022-11-15T15:42:59;8.73;;;6.97;;
27424;SDS011;15244;49.088;11.886;2022-11-15T15:48:18;7.20;;;6.50;;
27424;SDS011;15244;49.088;11.886;2022-11-15T15:53:27;7.90;;;7.03;;
27424;SDS011;15244;49.088;11.886;2022-11-15T15:58:36;8.82;;;6.80;;
27424;SDS011;15244;49.088;11.886;2022-11-15T16:03:49;8.00;;;6.70;;
27424;SDS011;15244;49.088;11.886;2022-11-15T16:08:58;7.93;;;6.88;;
27424;SDS011;15244;49.088;11.886;2022-11-15T16:14:16;8.80;;;7.30;;
27424;SDS011;15244;49.088;11.886;2022-11-15T16:19:26;7.05;;;6.45;;
27424;SDS011;15244;49.088;11.886;2022-11-15T16:24:31;7.75;;;6.95;;
27424;SDS011;15244;49.088;11.886;2022-11-15T16:29:32;7.10;;;6.50;;
27424;SDS011;15244;49.088;11.886;2022-11-15T16:34:34;9.55;;;7.80;;
27424;SDS011;15244;49.088;11.886;2022-11-15T16:39:52;9.82;;;7.28;;
27424;SDS011;15244;49.088;11.886;2022-11-15T16:45:03;8.13;;;7.32;;
27424;SDS011;15244;49.088;11.886;2022-11-15T16:50:05;7.40;;;6.80;;
27424;SDS011;15244;49.088;11.886;2022-11-15T16:55:15;8.45;;;6.80;;
27424;SDS011;15244;49.088;11.886;2022-11-15T17:00:21;7.68;;;6.97;;
27424;SDS011;15244;49.088;11.886;2022-11-15T17:05:26;7.13;;;6.60;;
27424;SDS011;15244;49.088;11.886;2022-11-15T17:10:37;7.60;;;6.88;;
27424;SDS011;15244;49.088;11.886;2022-11-15T17:15:45;9.98;;;6.93;;
27424;SDS011;15244;49.088;11.886;2022-11-15T17:20:53;8.82;;;7.38;;
27424;SDS011;15244;49.088;11.886;2022-11-15T17:26:10;8.38;;;7.57;;
27424;SDS011;15244;49.088;11.886;2022-11-15T17:31:34;8.30;;;7.50;;
27424;SDS011;15244;49.088;11.886;2022-11-15T17:36:45;11.00;;;8.30;;
27424;SDS011;15244;49.088;11.886;2022-11-15T17:41:52;11.27;;;9.38;;
27424;SDS011;15244;49.088;11.886;2022-11-15T17:46:57;11.10;;;9.90;;
27424;SDS011;15244;49.088;11.886;2022-11-15T17:52:02;9.45;;;8.23;;
27424;SDS011;15244;49.088;11.886;2022-11-15T17:57:10;14.35;;;8.75;;
27424;SDS011;15244;49.088;11.886;2022-11-15T18:02:13;9.40;;;8.40;;
27424;SDS011;15244;49.088;11.886;2022-11-15T18:07:14;10.43;;;8.93;;
27424;SDS011;15244;49.088;11.886;2022-11-15T18:12:16;11.07;;;9.20;;
27424;SDS011;15244;49.088;11.886;2022-11-15T18:17:20;8.90;;;8.10;;
27424;SDS011;15244;49.088;11.886;2022-11-15T18:22:24;11.02;;;8.90;;
27424;SDS011;15244;49.088;11.886;2022-11-15T18:27:25;9.82;;;8.45;;
27424;SDS011;15244;49.088;11.886;2022-11-15T18:32:28;9.70;;;8.48;;
27424;SDS011;15244;49.088;11.886;2022-11-15T18:37:31;11.48;;;9.40;;
27424;SDS011;15244;49.088;11.886;2022-11-15T18:42:34;11.75;;;8.90;;
27424;SDS011;15244;49.088;11.886;2022-11-15T18:47:45;11.70;;;8.65;;
27424;SDS011;15244;49.088;11.886;2022-11-15T18:52:48;14.48;;;8.77;;
27424;SDS011;15244;49.088;11.886;2022-11-15T18:57:55;8.85;;;8.02;;
27424;SDS011;15244;49.088;11.886;2022-11-15T19:02:57;10.05;;;9.05;;
27424;SDS011;15244;49.088;11.886;2022-11-15T19:08:02;10.40;;;8.57;;
27424;SDS011;15244;49.088;11.886;2022-11-15T19:13:08;10.55;;;8.68;;
27424;SDS011;15244;49.088;11.886;2022-11-15T19:18:17;10.73;;;9.13;;
27424;SDS011;15244;49.088;11.886;2022-11-15T19:23:24;10.70;;;9.13;;
27424;SDS011;15244;49.088;11.886;2022-11-15T19:28:28;12.75;;;8.57;;
27424;SDS011;15244;49.088;11.886;2022-11-15T19:33:36;9.27;;;8.37;;
27424;SDS011;15244;49.088;11.886;2022-11-15T19:38:46;10.38;;;8.13;;
27424;SDS011;15244;49.088;11.886;2022-11-15T19:43:49;10.88;;;9.32;;
27424;SDS011;15244;49.088;11.886;2022-11-15T19:48:51;12.20;;;9.38;;
27424;SDS011;15244;49.088;11.886;2022-11-15T19:53:55;10.52;;;9.43;;
27424;SDS011;15244;49.088;11.886;2022-11-15T19:59:05;11.98;;;9.73;;
27424;SDS011;15244;49.088;11.886;2022-11-15T20:04:20;10.02;;;8.77;;
27424;SDS011;15244;49.088;11.886;2022-11-15T20:09:26;11.05;;;8.60;;
27424;SDS011;15244;49.088;11.886;2022-11-15T20:14:28;12.88;;;10.10;;
27424;SDS011;15244;49.088;11.886;2022-11-15T20:19:30;12.70;;;8.73;;
27424;SDS011;15244;49.088;11.886;2022-11-15T20:24:40;10.10;;;9.10;;
27424;SDS011;15244;49.088;11.886;2022-11-15T20:29:47;12.88;;;9.50;;
27424;SDS011;15244;49.088;11.886;2022-11-15T20:34:49;11.48;;;9.88;;
27424;SDS011;15244;49.088;11.886;2022-11-15T20:39:56;12.05;;;9.98;;
27424;SDS011;15244;49.088;11.886;2022-11-15T20:45:00;15.07;;;10.50;;
27424;SDS011;15244;49.088;11.886;2022-11-15T20:50:04;13.45;;;10.52;;
27424;SDS011;15244;49.088;11.886;2022-11-15T20:55:28;13.93;;;10.38;;
27424;SDS011;15244;49.088;11.886;2022-11-15T21:00:31;15.93;;;11.15;;
27424;SDS011;15244;49.088;11.886;2022-11-15T21:05:37;12.35;;;11.10;;
27424;SDS011;15244;49.088;11.886;2022-11-15T21:10:39;14.85;;;11.95;;
27424;SDS011;15244;49.088;11.886;2022-11-15T21:16:08;12.68;;;10.95;;
27424;SDS011;15244;49.088;11.886;2022-11-15T21:21:10;13.10;;;11.27;;
27424;SDS011;15244;49.088;11.886;2022-11-15T21:26:22;14.50;;;11.88;;
27424;SDS011;15244;49.088;11.886;2022-11-15T21:31:25;13.75;;;11.13;;
27424;SDS011;15244;49.088;11.886;2022-11-15T21:36:29;15.40;;;12.13;;
27424;SDS011;15244;49.088;11.886;2022-11-15T21:41:34;15.27;;;11.65;;
27424;SDS011;15244;49.088;11.886;2022-11-15T21:46:41;14.35;;;11.00;;
27424;SDS011;15244;49.088;11.886;2022-11-15T21:51:48;11.05;;;8.80;;
27424;SDS011;15244;49.088;11.886;2022-11-15T21:56:57;15.02;;;11.25;;
27424;SDS011;15244;49.088;11.886;2022-11-15T22:02:01;14.13;;;10.63;;
27424;SDS011;15244;49.088;11.886;2022-11-15T22:07:17;12.27;;;11.07;;
27424;SDS011;15244;49.088;11.886;2022-11-15T22:12:19;12.82;;;10.65;;
27424;SDS011;15244;49.088;11.886;2022-11-15T22:17:29;12.73;;;11.07;;
27424;SDS011;15244;49.088;11.886;2022-11-15T22:22:59;12.77;;;10.43;;
27424;SDS011;15244;49.088;11.886;2022-11-15T22:28:21;14.18;;;11.90;;
27424;SDS011;15244;49.088;11.886;2022-11-15T22:33:26;14.88;;;11.52;;
27424;SDS011;15244;49.088;11.886;2022-11-15T22:38:41;15.77;;;12.32;;
27424;SDS011;15244;49.088;11.886;2022-11-15T22:43:49;15.02;;;11.48;;
27424;SDS011;15244;49.088;11.886;2022-11-15T22:48:54;14.02;;;11.35;;
27424;SDS011;15244;49.088;11.886;2022-11-15T22:54:09;16.75;;;12.45;;
27424;SDS011;15244;49.088;11.886;2022-11-15T22:59:15;18.65;;;12.80;;
27424;SDS011;15244;49.088;11.886;2022-11-15T23:04:18;16.40;;;12.40;;
27424;SDS011;15244;49.088;11.886;2022-11-15T23:09:25;14.75;;;12.13;;
27424;SDS011;15244;49.088;11.886;2022-11-15T23:14:28;17.25;;;13.75;;
27424;SDS011;15244;49.088;11.886;2022-11-15T23:19:37;18.23;;;13.23;;
27424;SDS011;15244;49.088;11.886;2022-11-15T23:24:44;18.48;;;13.05;;
27424;SDS011;15244;49.088;11.886;2022-11-15T23:29:50;17.27;;;13.60;;
27424;SDS011;15244;49.088;11.886;2022-11-15T23:35:10;16.33;;;13.30;;
27424;SDS011;15244;49.088;11.886;2022-11-15T23:40:17;17.95;;;13.95;;
27424;SDS011;15244;49.088;11.886;2022-11-15T23:45:27;18.40;;;13.50;;
27424;SDS011;15244;49.088;11.886;2022-11-15T23:50:31;16.92;;;13.00;;
27424;SDS011;15244;49.088;11.886;2022-11-15T23:55:42;18.20;;;13.13;;
